Terminal Aerodrome Forecast
Issued by NWS

Home | Current Version | Previous Version | Text Only | Print | Product List | Glossary On
Versions: 1 2 3 4 5 6 7 8 9 10 11 12
000
FTUS45 KPSR 052328
TAFSDL
TAF
KSDL 052328Z 0600/0624 18012G20KT P6SM SCT250
     FM060100 23017G27KT P6SM SCT250
     FM060400 25005KT P6SM FEW100 FEW250
     FM061000 VRB04KT P6SM FEW040 SCT070
     FM061500 15012KT P6SM SCT040 BKN060
     FM062000 20014G22KT P6SM SCT050 BKN070=

USA.gov is the U.S. government's official web portal to all federal, state and local government web resources and services.